sensor_id;sensor_type;location;lat;lon;timestamp;P1;durP1;ratioP1;P2;durP2;ratioP2
5795;SDS011;2924;51.458;7.046;2023-06-22T00:01:27;4.60;;;4.20;;
5795;SDS011;2924;51.458;7.046;2023-06-22T00:03:53;4.40;;;3.50;;
5795;SDS011;2924;51.458;7.046;2023-06-22T00:06:18;5.30;;;3.67;;
5795;SDS011;2924;51.458;7.046;2023-06-22T00:08:44;6.33;;;3.07;;
5795;SDS011;2924;51.458;7.046;2023-06-22T00:11:09;8.03;;;4.10;;
5795;SDS011;2924;51.458;7.046;2023-06-22T00:13:35;3.90;;;3.53;;
5795;SDS011;2924;51.458;7.046;2023-06-22T00:16:01;5.17;;;3.43;;
5795;SDS011;2924;51.458;7.046;2023-06-22T00:18:27;6.57;;;3.87;;
5795;SDS011;2924;51.458;7.046;2023-06-22T00:20:53;3.87;;;3.40;;
5795;SDS011;2924;51.458;7.046;2023-06-22T00:23:22;7.67;;;4.03;;
5795;SDS011;2924;51.458;7.046;2023-06-22T00:25:48;7.77;;;4.00;;
5795;SDS011;2924;51.458;7.046;2023-06-22T00:28:14;4.17;;;3.77;;
5795;SDS011;2924;51.458;7.046;2023-06-22T00:30:40;8.03;;;5.10;;
5795;SDS011;2924;51.458;7.046;2023-06-22T00:33:05;8.97;;;4.53;;
5795;SDS011;2924;51.458;7.046;2023-06-22T00:35:32;10.33;;;5.70;;
5795;SDS011;2924;51.458;7.046;2023-06-22T00:37:59;6.77;;;4.73;;
5795;SDS011;2924;51.458;7.046;2023-06-22T00:40:27;7.27;;;3.70;;
5795;SDS011;2924;51.458;7.046;2023-06-22T00:42:54;6.90;;;4.70;;
5795;SDS011;2924;51.458;7.046;2023-06-22T00:45:20;7.07;;;4.17;;
5795;SDS011;2924;51.458;7.046;2023-06-22T00:47:48;7.20;;;4.47;;
5795;SDS011;2924;51.458;7.046;2023-06-22T00:50:18;6.00;;;4.67;;
5795;SDS011;2924;51.458;7.046;2023-06-22T00:52:55;8.57;;;5.60;;
5795;SDS011;2924;51.458;7.046;2023-06-22T00:55:23;8.83;;;4.47;;
5795;SDS011;2924;51.458;7.046;2023-06-22T00:57:51;6.73;;;5.43;;
5795;SDS011;2924;51.458;7.046;2023-06-22T01:00:21;6.40;;;5.60;;
5795;SDS011;2924;51.458;7.046;2023-06-22T01:02:49;9.93;;;7.50;;
5795;SDS011;2924;51.458;7.046;2023-06-22T01:05:17;9.97;;;7.77;;
5795;SDS011;2924;51.458;7.046;2023-06-22T01:07:47;10.57;;;8.43;;
5795;SDS011;2924;51.458;7.046;2023-06-22T01:10:34;10.60;;;7.50;;
5795;SDS011;2924;51.458;7.046;2023-06-22T01:16:00;13.17;;;9.40;;
5795;SDS011;2924;51.458;7.046;2023-06-22T01:18:36;13.30;;;8.90;;
5795;SDS011;2924;51.458;7.046;2023-06-22T01:21:06;10.57;;;9.47;;
5795;SDS011;2924;51.458;7.046;2023-06-22T01:28:47;13.23;;;10.07;;
5795;SDS011;2924;51.458;7.046;2023-06-22T01:31:22;13.77;;;10.27;;
5795;SDS011;2924;51.458;7.046;2023-06-22T01:33:51;14.10;;;10.80;;
5795;SDS011;2924;51.458;7.046;2023-06-22T01:36:19;13.60;;;10.33;;
5795;SDS011;2924;51.458;7.046;2023-06-22T01:38:47;15.97;;;11.63;;
5795;SDS011;2924;51.458;7.046;2023-06-22T01:41:14;13.70;;;11.40;;
5795;SDS011;2924;51.458;7.046;2023-06-22T01:43:40;13.57;;;10.43;;
5795;SDS011;2924;51.458;7.046;2023-06-22T01:46:07;14.47;;;11.13;;
5795;SDS011;2924;51.458;7.046;2023-06-22T01:48:33;15.17;;;11.40;;
5795;SDS011;2924;51.458;7.046;2023-06-22T01:50:59;15.60;;;12.17;;
5795;SDS011;2924;51.458;7.046;2023-06-22T01:53:25;14.33;;;11.80;;
5795;SDS011;2924;51.458;7.046;2023-06-22T01:55:50;14.33;;;11.90;;
5795;SDS011;2924;51.458;7.046;2023-06-22T01:58:16;22.60;;;13.73;;
5795;SDS011;2924;51.458;7.046;2023-06-22T02:00:44;15.53;;;11.83;;
5795;SDS011;2924;51.458;7.046;2023-06-22T02:03:18;14.50;;;11.63;;
5795;SDS011;2924;51.458;7.046;2023-06-22T02:05:49;17.73;;;11.70;;
5795;SDS011;2924;51.458;7.046;2023-06-22T02:08:23;19.03;;;12.30;;
5795;SDS011;2924;51.458;7.046;2023-06-22T02:10:53;14.83;;;12.13;;
5795;SDS011;2924;51.458;7.046;2023-06-22T02:13:20;17.40;;;11.77;;
5795;SDS011;2924;51.458;7.046;2023-06-22T02:15:46;12.13;;;10.93;;
5795;SDS011;2924;51.458;7.046;2023-06-22T02:18:12;14.03;;;12.63;;
5795;SDS011;2924;51.458;7.046;2023-06-22T02:20:38;16.77;;;11.77;;
5795;SDS011;2924;51.458;7.046;2023-06-22T02:23:05;15.83;;;10.53;;
5795;SDS011;2924;51.458;7.046;2023-06-22T02:25:32;16.60;;;11.53;;
5795;SDS011;2924;51.458;7.046;2023-06-22T02:27:58;13.13;;;10.63;;
5795;SDS011;2924;51.458;7.046;2023-06-22T02:30:24;16.63;;;12.00;;
5795;SDS011;2924;51.458;7.046;2023-06-22T02:32:49;17.37;;;12.70;;
5795;SDS011;2924;51.458;7.046;2023-06-22T02:35:23;21.83;;;11.60;;
5795;SDS011;2924;51.458;7.046;2023-06-22T02:37:57;14.47;;;10.80;;
5795;SDS011;2924;51.458;7.046;2023-06-22T02:40:25;14.90;;;10.97;;
5795;SDS011;2924;51.458;7.046;2023-06-22T02:42:50;16.63;;;11.00;;
5795;SDS011;2924;51.458;7.046;2023-06-22T02:45:16;14.50;;;11.27;;
5795;SDS011;2924;51.458;7.046;2023-06-22T02:47:41;14.67;;;9.57;;
5795;SDS011;2924;51.458;7.046;2023-06-22T02:50:07;12.00;;;8.80;;
5795;SDS011;2924;51.458;7.046;2023-06-22T02:52:33;14.83;;;9.60;;
5795;SDS011;2924;51.458;7.046;2023-06-22T02:54:59;15.63;;;10.03;;
5795;SDS011;2924;51.458;7.046;2023-06-22T02:57:24;13.70;;;9.93;;
5795;SDS011;2924;51.458;7.046;2023-06-22T02:59:50;19.13;;;11.63;;
5795;SDS011;2924;51.458;7.046;2023-06-22T03:02:15;19.13;;;11.60;;
5795;SDS011;2924;51.458;7.046;2023-06-22T03:04:41;14.83;;;12.20;;
5795;SDS011;2924;51.458;7.046;2023-06-22T03:07:08;13.13;;;11.50;;
5795;SDS011;2924;51.458;7.046;2023-06-22T03:09:33;15.70;;;10.80;;
5795;SDS011;2924;51.458;7.046;2023-06-22T03:11:59;14.50;;;10.63;;
5795;SDS011;2924;51.458;7.046;2023-06-22T03:14:24;15.23;;;12.23;;
5795;SDS011;2924;51.458;7.046;2023-06-22T03:16:50;18.03;;;13.00;;
5795;SDS011;2924;51.458;7.046;2023-06-22T03:19:15;13.30;;;10.40;;
5795;SDS011;2924;51.458;7.046;2023-06-22T03:21:41;14.80;;;11.43;;
5795;SDS011;2924;51.458;7.046;2023-06-22T03:24:07;17.80;;;12.33;;
5795;SDS011;2924;51.458;7.046;2023-06-22T03:26:33;15.80;;;13.00;;
5795;SDS011;2924;51.458;7.046;2023-06-22T03:28:59;13.43;;;12.03;;
5795;SDS011;2924;51.458;7.046;2023-06-22T03:31:25;16.30;;;13.80;;
5795;SDS011;2924;51.458;7.046;2023-06-22T03:33:52;17.70;;;14.07;;
5795;SDS011;2924;51.458;7.046;2023-06-22T03:36:18;20.70;;;13.50;;
5795;SDS011;2924;51.458;7.046;2023-06-22T03:38:47;17.50;;;14.27;;
5795;SDS011;2924;51.458;7.046;2023-06-22T03:41:14;17.53;;;13.13;;
5795;SDS011;2924;51.458;7.046;2023-06-22T03:43:40;16.30;;;13.90;;
5795;SDS011;2924;51.458;7.046;2023-06-22T03:46:06;17.93;;;15.33;;
5795;SDS011;2924;51.458;7.046;2023-06-22T03:48:32;19.43;;;15.60;;
5795;SDS011;2924;51.458;7.046;2023-06-22T03:51:01;19.80;;;15.13;;
5795;SDS011;2924;51.458;7.046;2023-06-22T03:53:28;17.93;;;13.93;;
5795;SDS011;2924;51.458;7.046;2023-06-22T03:55:54;22.90;;;15.17;;
5795;SDS011;2924;51.458;7.046;2023-06-22T03:58:19;18.70;;;14.67;;
5795;SDS011;2924;51.458;7.046;2023-06-22T04:00:46;19.60;;;16.60;;
5795;SDS011;2924;51.458;7.046;2023-06-22T04:03:13;25.60;;;15.17;;
5795;SDS011;2924;51.458;7.046;2023-06-22T04:05:39;20.70;;;13.70;;
5795;SDS011;2924;51.458;7.046;2023-06-22T04:08:05;22.90;;;15.90;;
5795;SDS011;2924;51.458;7.046;2023-06-22T04:10:31;21.87;;;16.20;;
5795;SDS011;2924;51.458;7.046;2023-06-22T04:12:56;22.50;;;15.70;;
5795;SDS011;2924;51.458;7.046;2023-06-22T04:15:22;18.63;;;14.60;;
5795;SDS011;2924;51.458;7.046;2023-06-22T04:17:47;22.20;;;16.53;;
5795;SDS011;2924;51.458;7.046;2023-06-22T04:20:13;20.07;;;15.67;;
5795;SDS011;2924;51.458;7.046;2023-06-22T04:22:38;17.53;;;15.60;;
5795;SDS011;2924;51.458;7.046;2023-06-22T04:25:05;22.77;;;16.87;;
5795;SDS011;2924;51.458;7.046;2023-06-22T04:27:32;22.23;;;17.10;;
5795;SDS011;2924;51.458;7.046;2023-06-22T04:30:02;22.53;;;17.13;;
5795;SDS011;2924;51.458;7.046;2023-06-22T04:32:28;20.60;;;15.57;;
5795;SDS011;2924;51.458;7.046;2023-06-22T04:34:54;17.97;;;15.10;;
5795;SDS011;2924;51.458;7.046;2023-06-22T04:37:19;20.80;;;17.10;;
5795;SDS011;2924;51.458;7.046;2023-06-22T04:39:48;21.07;;;16.73;;
5795;SDS011;2924;51.458;7.046;2023-06-22T04:42:14;23.70;;;17.60;;
5795;SDS011;2924;51.458;7.046;2023-06-22T04:44:39;20.77;;;17.30;;
5795;SDS011;2924;51.458;7.046;2023-06-22T04:47:06;18.00;;;16.10;;
5795;SDS011;2924;51.458;7.046;2023-06-22T04:49:33;20.80;;;15.73;;
5795;SDS011;2924;51.458;7.046;2023-06-22T04:52:03;19.07;;;15.43;;
5795;SDS011;2924;51.458;7.046;2023-06-22T04:54:33;18.80;;;16.07;;
5795;SDS011;2924;51.458;7.046;2023-06-22T04:57:01;21.73;;;16.20;;
5795;SDS011;2924;51.458;7.046;2023-06-22T04:59:35;20.10;;;16.53;;
5795;SDS011;2924;51.458;7.046;2023-06-22T05:02:04;19.40;;;17.20;;
5795;SDS011;2924;51.458;7.046;2023-06-22T05:04:30;21.23;;;18.30;;
5795;SDS011;2924;51.458;7.046;2023-06-22T05:06:56;19.60;;;16.77;;
5795;SDS011;2924;51.458;7.046;2023-06-22T05:09:23;19.93;;;15.67;;
5795;SDS011;2924;51.458;7.046;2023-06-22T05:11:50;22.77;;;15.87;;
5795;SDS011;2924;51.458;7.046;2023-06-22T05:14:15;18.30;;;16.03;;
5795;SDS011;2924;51.458;7.046;2023-06-22T05:16:41;28.93;;;16.90;;
5795;SDS011;2924;51.458;7.046;2023-06-22T05:19:07;21.53;;;17.03;;
5795;SDS011;2924;51.458;7.046;2023-06-22T05:21:33;22.30;;;17.47;;
5795;SDS011;2924;51.458;7.046;2023-06-22T05:23:59;26.23;;;18.03;;
5795;SDS011;2924;51.458;7.046;2023-06-22T05:26:31;20.30;;;17.70;;
5795;SDS011;2924;51.458;7.046;2023-06-22T05:28:58;23.60;;;19.00;;
5795;SDS011;2924;51.458;7.046;2023-06-22T05:31:25;25.70;;;20.60;;
5795;SDS011;2924;51.458;7.046;2023-06-22T05:33:51;27.73;;;19.90;;
5795;SDS011;2924;51.458;7.046;2023-06-22T05:36:18;30.13;;;18.63;;
5795;SDS011;2924;51.458;7.046;2023-06-22T05:38:50;24.03;;;18.57;;
5795;SDS011;2924;51.458;7.046;2023-06-22T05:41:17;25.63;;;17.47;;
5795;SDS011;2924;51.458;7.046;2023-06-22T05:43:43;26.37;;;17.93;;
5795;SDS011;2924;51.458;7.046;2023-06-22T05:46:08;21.67;;;18.13;;
5795;SDS011;2924;51.458;7.046;2023-06-22T05:48:34;29.83;;;20.23;;
5795;SDS011;2924;51.458;7.046;2023-06-22T05:50:59;24.03;;;17.87;;
5795;SDS011;2924;51.458;7.046;2023-06-22T05:53:25;29.30;;;18.03;;
5795;SDS011;2924;51.458;7.046;2023-06-22T05:55:51;21.63;;;17.90;;
5795;SDS011;2924;51.458;7.046;2023-06-22T05:58:16;28.27;;;17.73;;
5795;SDS011;2924;51.458;7.046;2023-06-22T06:00:42;20.77;;;17.97;;
5795;SDS011;2924;51.458;7.046;2023-06-22T06:03:08;22.67;;;16.23;;
5795;SDS011;2924;51.458;7.046;2023-06-22T06:05:34;31.80;;;19.33;;
5795;SDS011;2924;51.458;7.046;2023-06-22T06:08:01;24.27;;;18.77;;
5795;SDS011;2924;51.458;7.046;2023-06-22T06:10:28;24.43;;;17.37;;
5795;SDS011;2924;51.458;7.046;2023-06-22T06:12:54;22.40;;;18.50;;
5795;SDS011;2924;51.458;7.046;2023-06-22T06:15:20;20.93;;;16.30;;
5795;SDS011;2924;51.458;7.046;2023-06-22T06:17:46;21.30;;;15.70;;
5795;SDS011;2924;51.458;7.046;2023-06-22T06:20:19;23.87;;;17.20;;
5795;SDS011;2924;51.458;7.046;2023-06-22T06:22:46;31.00;;;19.90;;
5795;SDS011;2924;51.458;7.046;2023-06-22T06:25:12;24.73;;;18.20;;
5795;SDS011;2924;51.458;7.046;2023-06-22T06:27:42;25.47;;;19.43;;
5795;SDS011;2924;51.458;7.046;2023-06-22T06:30:08;23.70;;;19.67;;
5795;SDS011;2924;51.458;7.046;2023-06-22T06:32:35;29.70;;;20.40;;
5795;SDS011;2924;51.458;7.046;2023-06-22T06:35:01;23.20;;;20.47;;
5795;SDS011;2924;51.458;7.046;2023-06-22T06:37:26;32.33;;;22.40;;
5795;SDS011;2924;51.458;7.046;2023-06-22T06:39:52;25.23;;;19.70;;
5795;SDS011;2924;51.458;7.046;2023-06-22T06:42:18;25.77;;;20.67;;
5795;SDS011;2924;51.458;7.046;2023-06-22T06:44:44;25.83;;;21.30;;
5795;SDS011;2924;51.458;7.046;2023-06-22T06:47:10;35.80;;;20.80;;
5795;SDS011;2924;51.458;7.046;2023-06-22T06:49:35;23.90;;;19.67;;
5795;SDS011;2924;51.458;7.046;2023-06-22T06:52:01;18.73;;;16.40;;
5795;SDS011;2924;51.458;7.046;2023-06-22T06:54:27;22.60;;;16.97;;
5795;SDS011;2924;51.458;7.046;2023-06-22T06:56:52;25.70;;;17.00;;
5795;SDS011;2924;51.458;7.046;2023-06-22T06:59:18;28.87;;;16.97;;
5795;SDS011;2924;51.458;7.046;2023-06-22T07:01:44;21.60;;;17.57;;
5795;SDS011;2924;51.458;7.046;2023-06-22T07:04:09;20.73;;;16.20;;
5795;SDS011;2924;51.458;7.046;2023-06-22T07:06:35;21.10;;;15.60;;
5795;SDS011;2924;51.458;7.046;2023-06-22T07:09:01;19.10;;;14.67;;
5795;SDS011;2924;51.458;7.046;2023-06-22T07:11:27;20.17;;;14.30;;
5795;SDS011;2924;51.458;7.046;2023-06-22T07:13:52;23.80;;;16.03;;
5795;SDS011;2924;51.458;7.046;2023-06-22T07:16:18;20.53;;;14.63;;
5795;SDS011;2924;51.458;7.046;2023-06-22T07:18:43;20.33;;;14.50;;
5795;SDS011;2924;51.458;7.046;2023-06-22T07:21:09;19.37;;;13.97;;
5795;SDS011;2924;51.458;7.046;2023-06-22T07:23:34;22.80;;;15.20;;
5795;SDS011;2924;51.458;7.046;2023-06-22T07:26:00;20.20;;;13.50;;
5795;SDS011;2924;51.458;7.046;2023-06-22T07:28:31;17.20;;;13.90;;
5795;SDS011;2924;51.458;7.046;2023-06-22T07:31:02;19.30;;;15.40;;
5795;SDS011;2924;51.458;7.046;2023-06-22T07:33:28;21.23;;;15.90;;
5795;SDS011;2924;51.458;7.046;2023-06-22T07:35:53;30.77;;;15.73;;
5795;SDS011;2924;51.458;7.046;2023-06-22T07:38:19;19.30;;;14.00;;
5795;SDS011;2924;51.458;7.046;2023-06-22T07:40:45;23.37;;;15.60;;
5795;SDS011;2924;51.458;7.046;2023-06-22T07:43:10;24.43;;;16.60;;
5795;SDS011;2924;51.458;7.046;2023-06-22T07:45:37;29.67;;;15.90;;
5795;SDS011;2924;51.458;7.046;2023-06-22T07:48:05;28.30;;;17.00;;
5795;SDS011;2924;51.458;7.046;2023-06-22T07:50:30;31.30;;;17.17;;
5795;SDS011;2924;51.458;7.046;2023-06-22T07:52:56;23.60;;;17.70;;
5795;SDS011;2924;51.458;7.046;2023-06-22T07:55:21;19.40;;;16.43;;
5795;SDS011;2924;51.458;7.046;2023-06-22T07:57:48;32.83;;;18.67;;
5795;SDS011;2924;51.458;7.046;2023-06-22T08:00:16;24.23;;;17.43;;
5795;SDS011;2924;51.458;7.046;2023-06-22T08:02:44;23.97;;;19.33;;
5795;SDS011;2924;51.458;7.046;2023-06-22T08:05:11;27.00;;;19.07;;
5795;SDS011;2924;51.458;7.046;2023-06-22T08:07:37;28.87;;;20.27;;
5795;SDS011;2924;51.458;7.046;2023-06-22T08:10:04;33.50;;;20.17;;
5795;SDS011;2924;51.458;7.046;2023-06-22T08:12:30;27.17;;;19.37;;
5795;SDS011;2924;51.458;7.046;2023-06-22T08:14:56;29.63;;;21.00;;
5795;SDS011;2924;51.458;7.046;2023-06-22T08:17:22;29.30;;;22.17;;
5795;SDS011;2924;51.458;7.046;2023-06-22T08:19:48;26.43;;;20.97;;
5795;SDS011;2924;51.458;7.046;2023-06-22T08:22:15;28.53;;;21.90;;
5795;SDS011;2924;51.458;7.046;2023-06-22T08:24:41;29.90;;;22.00;;
5795;SDS011;2924;51.458;7.046;2023-06-22T08:27:07;27.80;;;21.67;;
5795;SDS011;2924;51.458;7.046;2023-06-22T08:29:40;26.67;;;21.90;;
5795;SDS011;2924;51.458;7.046;2023-06-22T08:32:08;32.33;;;20.23;;
5795;SDS011;2924;51.458;7.046;2023-06-22T08:34:34;22.00;;;19.27;;
5795;SDS011;2924;51.458;7.046;2023-06-22T08:36:59;31.47;;;20.07;;
5795;SDS011;2924;51.458;7.046;2023-06-22T08:39:25;21.03;;;17.83;;
5795;SDS011;2924;51.458;7.046;2023-06-22T08:41:51;18.60;;;16.60;;
5795;SDS011;2924;51.458;7.046;2023-06-22T08:44:18;21.40;;;17.30;;
5795;SDS011;2924;51.458;7.046;2023-06-22T08:46:44;20.57;;;18.40;;
5795;SDS011;2924;51.458;7.046;2023-06-22T08:49:09;22.13;;;17.57;;
5795;SDS011;2924;51.458;7.046;2023-06-22T08:51:35;19.90;;;17.00;;
5795;SDS011;2924;51.458;7.046;2023-06-22T08:54:01;19.40;;;16.93;;
5795;SDS011;2924;51.458;7.046;2023-06-22T08:56:26;23.20;;;17.30;;
5795;SDS011;2924;51.458;7.046;2023-06-22T08:58:52;29.73;;;17.90;;
5795;SDS011;2924;51.458;7.046;2023-06-22T09:01:17;24.37;;;18.00;;
5795;SDS011;2924;51.458;7.046;2023-06-22T09:03:43;20.10;;;16.93;;
5795;SDS011;2924;51.458;7.046;2023-06-22T09:06:09;25.33;;;17.57;;
5795;SDS011;2924;51.458;7.046;2023-06-22T09:08:35;24.90;;;17.73;;
5795;SDS011;2924;51.458;7.046;2023-06-22T09:11:01;21.03;;;18.13;;
5795;SDS011;2924;51.458;7.046;2023-06-22T09:13:29;20.40;;;16.90;;
5795;SDS011;2924;51.458;7.046;2023-06-22T09:15:55;20.77;;;17.00;;
5795;SDS011;2924;51.458;7.046;2023-06-22T09:18:21;22.77;;;15.80;;
5795;SDS011;2924;51.458;7.046;2023-06-22T09:20:46;19.93;;;16.27;;
5795;SDS011;2924;51.458;7.046;2023-06-22T09:23:12;20.93;;;17.50;;
5795;SDS011;2924;51.458;7.046;2023-06-22T09:25:38;26.90;;;17.10;;
5795;SDS011;2924;51.458;7.046;2023-06-22T09:28:05;23.77;;;18.17;;
5795;SDS011;2924;51.458;7.046;2023-06-22T09:30:30;19.20;;;16.60;;
5795;SDS011;2924;51.458;7.046;2023-06-22T09:32:56;20.60;;;17.70;;
5795;SDS011;2924;51.458;7.046;2023-06-22T09:35:21;28.50;;;17.27;;
5795;SDS011;2924;51.458;7.046;2023-06-22T09:37:47;17.73;;;15.57;;
5795;SDS011;2924;51.458;7.046;2023-06-22T09:40:12;27.07;;;16.60;;
5795;SDS011;2924;51.458;7.046;2023-06-22T09:42:41;20.43;;;15.80;;
5795;SDS011;2924;51.458;7.046;2023-06-22T09:45:06;20.77;;;15.73;;
5795;SDS011;2924;51.458;7.046;2023-06-22T09:47:32;22.30;;;14.23;;
5795;SDS011;2924;51.458;7.046;2023-06-22T09:49:58;18.27;;;15.70;;
5795;SDS011;2924;51.458;7.046;2023-06-22T09:52:24;22.17;;;14.67;;
5795;SDS011;2924;51.458;7.046;2023-06-22T09:54:50;26.33;;;16.10;;
5795;SDS011;2924;51.458;7.046;2023-06-22T09:57:16;16.50;;;14.80;;
5795;SDS011;2924;51.458;7.046;2023-06-22T09:59:42;16.73;;;15.03;;
5795;SDS011;2924;51.458;7.046;2023-06-22T10:02:07;15.67;;;14.07;;
5795;SDS011;2924;51.458;7.046;2023-06-22T10:04:34;18.57;;;14.60;;
5795;SDS011;2924;51.458;7.046;2023-06-22T10:07:00;16.63;;;15.03;;
5795;SDS011;2924;51.458;7.046;2023-06-22T10:09:26;19.20;;;14.37;;
5795;SDS011;2924;51.458;7.046;2023-06-22T10:11:51;17.73;;;15.40;;
5795;SDS011;2924;51.458;7.046;2023-06-22T10:14:17;22.20;;;15.00;;
5795;SDS011;2924;51.458;7.046;2023-06-22T10:16:43;20.27;;;14.68;;
5795;SDS011;2924;51.458;7.046;2023-06-22T10:19:08;23.10;;;14.95;;
5795;SDS011;2924;51.458;7.046;2023-06-22T10:21:34;22.10;;;13.27;;
5795;SDS011;2924;51.458;7.046;2023-06-22T10:24:00;16.20;;;13.35;;
5795;SDS011;2924;51.458;7.046;2023-06-22T10:26:31;15.80;;;13.82;;
5795;SDS011;2924;51.458;7.046;2023-06-22T10:28:57;18.10;;;15.13;;
5795;SDS011;2924;51.458;7.046;2023-06-22T10:31:23;15.63;;;14.05;;
5795;SDS011;2924;51.458;7.046;2023-06-22T10:33:48;14.20;;;12.77;;
5795;SDS011;2924;51.458;7.046;2023-06-22T10:36:14;24.80;;;14.73;;
5795;SDS011;2924;51.458;7.046;2023-06-22T10:38:40;17.48;;;15.80;;
5795;SDS011;2924;51.458;7.046;2023-06-22T10:41:05;17.90;;;14.90;;
5795;SDS011;2924;51.458;7.046;2023-06-22T10:43:31;14.55;;;13.05;;
5795;SDS011;2924;51.458;7.046;2023-06-22T10:45:57;15.15;;;12.15;;
5795;SDS011;2924;51.458;7.046;2023-06-22T10:48:22;17.10;;;13.80;;
5795;SDS011;2924;51.458;7.046;2023-06-22T10:50:48;16.13;;;14.40;;
5795;SDS011;2924;51.458;7.046;2023-06-22T10:53:13;16.85;;;10.60;;
5795;SDS011;2924;51.458;7.046;2023-06-22T10:55:39;18.90;;;14.60;;
5795;SDS011;2924;51.458;7.046;2023-06-22T10:58:04;16.90;;;12.07;;
5795;SDS011;2924;51.458;7.046;2023-06-22T11:00:30;16.63;;;13.18;;
5795;SDS011;2924;51.458;7.046;2023-06-22T11:02:55;14.13;;;12.73;;
5795;SDS011;2924;51.458;7.046;2023-06-22T11:05:21;12.40;;;11.25;;
5795;SDS011;2924;51.458;7.046;2023-06-22T11:07:47;15.95;;;13.23;;
5795;SDS011;2924;51.458;7.046;2023-06-22T11:10:14;14.65;;;13.15;;
5795;SDS011;2924;51.458;7.046;2023-06-22T11:12:40;16.35;;;14.60;;
5795;SDS011;2924;51.458;7.046;2023-06-22T11:15:07;18.75;;;14.68;;
5795;SDS011;2924;51.458;7.046;2023-06-22T11:17:33;21.50;;;15.43;;
5795;SDS011;2924;51.458;7.046;2023-06-22T11:19:59;14.67;;;13.00;;
5795;SDS011;2924;51.458;7.046;2023-06-22T11:22:25;16.00;;;14.30;;
5795;SDS011;2924;51.458;7.046;2023-06-22T11:24:51;15.73;;;13.87;;
5795;SDS011;2924;51.458;7.046;2023-06-22T11:27:16;22.50;;;16.40;;
5795;SDS011;2924;51.458;7.046;2023-06-22T14:50:09;17.93;;;15.53;;
5795;SDS011;2924;51.458;7.046;2023-06-22T14:52:35;16.23;;;13.40;;
5795;SDS011;2924;51.458;7.046;2023-06-22T14:55:00;17.73;;;13.97;;
5795;SDS011;2924;51.458;7.046;2023-06-22T14:57:26;16.03;;;14.40;;
5795;SDS011;2924;51.458;7.046;2023-06-22T14:59:51;15.67;;;14.00;;
5795;SDS011;2924;51.458;7.046;2023-06-22T15:02:17;15.97;;;14.37;;
5795;SDS011;2924;51.458;7.046;2023-06-22T15:04:43;19.10;;;16.30;;
5795;SDS011;2924;51.458;7.046;2023-06-22T15:07:08;20.20;;;16.70;;
5795;SDS011;2924;51.458;7.046;2023-06-22T15:09:34;20.57;;;17.23;;
5795;SDS011;2924;51.458;7.046;2023-06-22T15:11:59;21.27;;;16.90;;
5795;SDS011;2924;51.458;7.046;2023-06-22T15:14:26;18.83;;;16.73;;
5795;SDS011;2924;51.458;7.046;2023-06-22T15:16:52;21.87;;;18.27;;
5795;SDS011;2924;51.458;7.046;2023-06-22T15:19:18;22.97;;;19.97;;
5795;SDS011;2924;51.458;7.046;2023-06-22T15:21:44;30.70;;;21.63;;
5795;SDS011;2924;51.458;7.046;2023-06-22T15:24:09;28.07;;;23.77;;
5795;SDS011;2924;51.458;7.046;2023-06-22T15:26:36;30.60;;;25.67;;
5795;SDS011;2924;51.458;7.046;2023-06-22T15:29:01;32.60;;;26.07;;
5795;SDS011;2924;51.458;7.046;2023-06-22T15:31:27;30.57;;;27.20;;
5795;SDS011;2924;51.458;7.046;2023-06-22T15:33:52;32.37;;;26.57;;
5795;SDS011;2924;51.458;7.046;2023-06-22T15:36:18;30.30;;;25.90;;
5795;SDS011;2924;51.458;7.046;2023-06-22T15:38:44;31.30;;;26.53;;
5795;SDS011;2924;51.458;7.046;2023-06-22T15:41:09;30.50;;;26.30;;
5795;SDS011;2924;51.458;7.046;2023-06-22T15:43:35;29.20;;;25.60;;
5795;SDS011;2924;51.458;7.046;2023-06-22T15:46:00;29.80;;;26.53;;
5795;SDS011;2924;51.458;7.046;2023-06-22T15:48:26;30.83;;;26.77;;
5795;SDS011;2924;51.458;7.046;2023-06-22T15:50:51;28.40;;;23.80;;
5795;SDS011;2924;51.458;7.046;2023-06-22T15:53:17;30.50;;;25.60;;
5795;SDS011;2924;51.458;7.046;2023-06-22T15:55:43;41.83;;;27.93;;
5795;SDS011;2924;51.458;7.046;2023-06-22T15:58:08;41.57;;;24.80;;
5795;SDS011;2924;51.458;7.046;2023-06-22T16:00:34;43.77;;;25.43;;
5795;SDS011;2924;51.458;7.046;2023-06-22T16:03:00;34.70;;;24.53;;
5795;SDS011;2924;51.458;7.046;2023-06-22T16:05:26;43.80;;;27.50;;
5795;SDS011;2924;51.458;7.046;2023-06-22T16:07:54;37.13;;;28.90;;
5795;SDS011;2924;51.458;7.046;2023-06-22T16:10:20;39.20;;;29.23;;
5795;SDS011;2924;51.458;7.046;2023-06-22T16:12:46;43.60;;;31.50;;
5795;SDS011;2924;51.458;7.046;2023-06-22T16:15:13;43.83;;;31.07;;
5795;SDS011;2924;51.458;7.046;2023-06-22T16:17:39;39.50;;;29.13;;
5795;SDS011;2924;51.458;7.046;2023-06-22T16:20:05;38.00;;;29.93;;
5795;SDS011;2924;51.458;7.046;2023-06-22T16:22:32;39.20;;;27.77;;
5795;SDS011;2924;51.458;7.046;2023-06-22T16:24:58;34.30;;;27.00;;
5795;SDS011;2924;51.458;7.046;2023-06-22T16:27:24;35.33;;;25.70;;
5795;SDS011;2924;51.458;7.046;2023-06-22T16:29:50;32.20;;;24.50;;
5795;SDS011;2924;51.458;7.046;2023-06-22T16:32:16;29.57;;;23.70;;
5795;SDS011;2924;51.458;7.046;2023-06-22T16:34:42;29.73;;;23.47;;
5795;SDS011;2924;51.458;7.046;2023-06-22T16:37:10;29.43;;;23.13;;
5795;SDS011;2924;51.458;7.046;2023-06-22T16:39:36;33.80;;;24.40;;
5795;SDS011;2924;51.458;7.046;2023-06-22T16:42:02;33.80;;;25.67;;
5795;SDS011;2924;51.458;7.046;2023-06-22T16:44:28;29.97;;;22.27;;
5795;SDS011;2924;51.458;7.046;2023-06-22T16:46:54;36.47;;;24.93;;
5795;SDS011;2924;51.458;7.046;2023-06-22T16:49:19;30.77;;;24.30;;
5795;SDS011;2924;51.458;7.046;2023-06-22T16:51:45;31.80;;;25.60;;
5795;SDS011;2924;51.458;7.046;2023-06-22T16:54:11;38.03;;;25.33;;
5795;SDS011;2924;51.458;7.046;2023-06-22T16:56:37;29.83;;;24.23;;
5795;SDS011;2924;51.458;7.046;2023-06-22T16:59:03;36.27;;;26.40;;
5795;SDS011;2924;51.458;7.046;2023-06-22T17:01:28;34.67;;;24.20;;
5795;SDS011;2924;51.458;7.046;2023-06-22T17:04:01;33.50;;;25.50;;
5795;SDS011;2924;51.458;7.046;2023-06-22T17:06:31;34.90;;;25.10;;
5795;SDS011;2924;51.458;7.046;2023-06-22T17:08:57;32.73;;;24.23;;
5795;SDS011;2924;51.458;7.046;2023-06-22T17:11:25;34.00;;;26.17;;
5795;SDS011;2924;51.458;7.046;2023-06-22T17:13:53;34.97;;;26.30;;
5795;SDS011;2924;51.458;7.046;2023-06-22T17:16:19;36.10;;;25.10;;
5795;SDS011;2924;51.458;7.046;2023-06-22T17:18:45;31.83;;;24.63;;
5795;SDS011;2924;51.458;7.046;2023-06-22T17:21:12;40.20;;;25.23;;
5795;SDS011;2924;51.458;7.046;2023-06-22T17:23:37;34.67;;;25.90;;
5795;SDS011;2924;51.458;7.046;2023-06-22T17:26:03;38.17;;;25.30;;
5795;SDS011;2924;51.458;7.046;2023-06-22T17:31:16;33.77;;;24.83;;
5795;SDS011;2924;51.458;7.046;2023-06-22T17:33:42;36.03;;;25.73;;
5795;SDS011;2924;51.458;7.046;2023-06-22T17:36:12;40.60;;;27.53;;
5795;SDS011;2924;51.458;7.046;2023-06-22T17:38:40;34.20;;;25.93;;
5795;SDS011;2924;51.458;7.046;2023-06-22T17:41:06;31.60;;;25.20;;
5795;SDS011;2924;51.458;7.046;2023-06-22T17:43:31;33.30;;;26.57;;
5795;SDS011;2924;51.458;7.046;2023-06-22T17:45:58;34.87;;;27.83;;
5795;SDS011;2924;51.458;7.046;2023-06-22T17:48:24;36.43;;;27.10;;
5795;SDS011;2924;51.458;7.046;2023-06-22T17:50:50;37.33;;;27.07;;
5795;SDS011;2924;51.458;7.046;2023-06-22T17:53:16;39.70;;;29.50;;
5795;SDS011;2924;51.458;7.046;2023-06-22T17:55:42;39.73;;;29.00;;
5795;SDS011;2924;51.458;7.046;2023-06-22T17:58:08;46.10;;;30.50;;
5795;SDS011;2924;51.458;7.046;2023-06-22T18:00:33;39.80;;;30.60;;
5795;SDS011;2924;51.458;7.046;2023-06-22T18:02:59;45.20;;;33.23;;
5795;SDS011;2924;51.458;7.046;2023-06-22T18:05:29;38.50;;;30.73;;
5795;SDS011;2924;51.458;7.046;2023-06-22T18:07:59;39.57;;;30.63;;
5795;SDS011;2924;51.458;7.046;2023-06-22T18:10:26;42.43;;;30.70;;
5795;SDS011;2924;51.458;7.046;2023-06-22T18:13:01;46.77;;;33.17;;
5795;SDS011;2924;51.458;7.046;2023-06-22T18:15:30;46.73;;;32.23;;
5795;SDS011;2924;51.458;7.046;2023-06-22T18:17:57;54.37;;;34.87;;